Sunday, November 19, 2017, 10:41 AM GMT
Back to Local

CWIS, Charlevoix CS , Que.

Location: , , Canada Lat: 47.283
Local Time: 10:41 AM GMT (10:41 GMT) Lon: -70.633
Time Zone: GMT Elev: 2358 ft

Show me the last for .
Show Decoded

2017-11-19 10:00 METAR CWIS 191000Z AUTO 03004G20KT M06/M06 RMK AO1 8PAST HR SOG 05 6047 PK WND
                 03020/0956 SLP908 P0003 T10601060 50021 =
2017-11-19 09:00 METAR CWIS 190900Z AUTO 02004KT M06/M06 RMK AO1 6PAST HR SOG 05 8040 SLP922
                 P0002 T10551055 50013 =
2017-11-19 08:00 METAR CWIS 190800Z AUTO 05007KT M06/M06 RMK AO1 7PAST HR PRESFR SOG 05 8043
                 SLP932 P0003 T10611061 50007 =
2017-11-19 07:00 METAR CWIS 190700Z AUTO 04005KT M06/M06 RMK AO1 SOG 05 6029 SLP958 T10611061 =
2017-11-19 06:00 METAR CWIS 190600Z AUTO 04004KT M06/M06 RMK AO1 SOG 05 6036 SLP965 T10621062 =
2017-11-19 05:00 METAR CWIS 190500Z AUTO 04004KT M06/M06 RMK AO1 SOG 05 6035 SLP979 T10641064 =
2017-11-19 04:00 METAR CWIS 190400Z AUTO 04005KT M07/M07 RMK AO1 SOG 05 8033 SLP990 T10651067 =
2017-11-19 03:00 METAR CWIS 190300Z AUTO 03005KT M06/M07 RMK AO1 SOG 05 8023 SLP007 T10641067 =
2017-11-19 02:00 METAR CWIS 190200Z AUTO 03004KT M07/M08 RMK AO1 SOG 05 6021 SLP022 T10651076 =
2017-11-19 01:00 METAR CWIS 190100Z AUTO 03005KT M06/M08 RMK AO1 SOG 05 8015 SLP034 T10551080 =
2017-11-19 00:00 METAR CWIS 190000Z AUTO 04005KT M05/M09 RMK AO1 SOG 05 8013 SLP038 T10451094 =
2017-11-18 23:00 METAR CWIS 182300Z AUTO 02003KT M05/M10 RMK AO1 SOG 05 6017 SLP049 T10491095 =
2017-11-18 22:00 METAR CWIS 182200Z AUTO 01003KT M05/M08 RMK AO1 SOG 05 7017 SLP052 T10461079 =
2017-11-18 21:00 METAR CWIS 182100Z AUTO 01003KT M04/M10 RMK AO1 SOG 05 8024 SLP053 T10351101 =
2017-11-18 20:00 METAR CWIS 182000Z AUTO 13007KT M03/M10 RMK AO1 SOG 05 6014 SLP066 T10311096 =
2017-11-18 19:00 METAR CWIS 181900Z AUTO 21003KT M03/M06 RMK AO1 SOG 05 8019 SLP068 T10261060 =
2017-11-18 18:00 METAR CWIS 181800Z AUTO 15012KT M02/M08 RMK AO1 SOG 05 6018 SLP072 T10241075 =
2017-11-18 17:00 METAR CWIS 181700Z AUTO 16009KT M03/M08 RMK AO1 SOG 05 6023 SLP079 T10261084 =
2017-11-18 16:00 METAR CWIS 181600Z AUTO 07005KT M02/M09 RMK AO1 SOG 05 6028 SLP085 T10151088 =
2017-11-18 15:00 METAR CWIS 181500Z AUTO 01003KT M05/M07 RMK AO1 SOG 05 8020 SLP095 T10481072 =
2017-11-18 14:00 METAR CWIS 181400Z AUTO 15002KT M08/M09 RMK AO1 SOG 05 8006 SLP109 T10781089 =
2017-11-18 11:00 METAR CWIS 181100Z AUTO 14007G15KT M13/M14 RMK AO1 SOG 05 1004 SLP121 T11341141
                 =

Support USWX by starting your Amazon purchase here.